createdAt,value
2023-05-14T00:00:38.979Z,100755.33
2023-05-14T00:03:26.611Z,100756.50
2023-05-14T00:05:54.317Z,100756.59
2023-05-14T00:08:21.963Z,100754.59
2023-05-14T00:10:49.646Z,100755.02
2023-05-14T00:13:17.330Z,100750.77
2023-05-14T00:15:45.394Z,100749.34
2023-05-14T00:18:13.325Z,100753.87
2023-05-14T00:20:41.008Z,100753.16
2023-05-14T00:23:09.262Z,100753.55
2023-05-14T00:25:36.920Z,100755.15
2023-05-14T00:28:04.908Z,100753.55
2023-05-14T00:30:33.670Z,100755.95
2023-05-14T00:33:01.487Z,100755.15
2023-05-14T00:35:29.252Z,100752.95
2023-05-14T00:37:56.883Z,100752.23
2023-05-14T00:40:27.055Z,100749.85
2023-05-14T00:42:56.207Z,100749.54
2023-05-14T00:45:23.834Z,100752.20
2023-05-14T00:47:52.210Z,100746.63
2023-05-14T00:50:20.126Z,100749.09
2023-05-14T00:52:47.911Z,100750.00
2023-05-14T00:55:16.602Z,100749.26
2023-05-14T00:57:45.057Z,100747.88
2023-05-14T01:00:13.236Z,100747.40
2023-05-14T01:02:40.927Z,100746.02
2023-05-14T01:05:09.875Z,100744.15
2023-05-14T01:08:01.314Z,100745.54
2023-05-14T01:10:36.725Z,100743.00
2023-05-14T01:13:20.780Z,100746.40
2023-05-14T01:15:49.478Z,100743.52
2023-05-14T01:18:19.410Z,100745.45
2023-05-14T01:20:51.451Z,100748.15
2023-05-14T01:23:19.176Z,100748.08
2023-05-14T01:25:46.866Z,100747.74
2023-05-14T01:28:27.212Z,100746.38
2023-05-14T01:31:12.006Z,100743.93
2023-05-14T01:33:42.651Z,100741.23
2023-05-14T01:36:10.926Z,100738.35
2023-05-14T01:38:39.603Z,100739.27
2023-05-14T01:41:07.481Z,100737.58
2023-05-14T01:43:36.143Z,100735.56
2023-05-14T01:46:04.864Z,100737.43
2023-05-14T01:48:32.721Z,100738.25
2023-05-14T01:51:00.463Z,100736.66
2023-05-14T01:53:28.279Z,100731.63
2023-05-14T01:55:55.951Z,100735.89
2023-05-14T01:58:23.661Z,100736.06
2023-05-14T02:00:51.288Z,100738.81
2023-05-14T02:03:19.930Z,100734.37
2023-05-14T02:05:47.632Z,100734.13
2023-05-14T02:08:15.772Z,100735.12
2023-05-14T02:10:43.383Z,100735.13
2023-05-14T02:13:11.061Z,100735.23
2023-05-14T02:15:38.762Z,100732.09
2023-05-14T02:18:06.520Z,100736.45
2023-05-14T02:20:34.250Z,100730.29
2023-05-14T02:23:01.888Z,100729.51
2023-05-14T02:25:29.570Z,100725.66
2023-05-14T02:27:57.223Z,100724.31
2023-05-14T02:30:25.288Z,100726.55
2023-05-14T02:32:53.415Z,100724.42
2023-05-14T02:35:21.865Z,100726.00
2023-05-14T02:37:49.505Z,100724.11
2023-05-14T02:40:17.281Z,100727.02
2023-05-14T02:42:44.910Z,100722.30
2023-05-14T02:45:12.554Z,100719.83
2023-05-14T02:47:41.169Z,100719.56
2023-05-14T02:50:09.521Z,100717.09
2023-05-14T02:52:37.209Z,100715.38
2023-05-14T02:55:06.172Z,100712.58
2023-05-14T02:57:33.873Z,100713.96
2023-05-14T03:00:01.825Z,100715.93
2023-05-14T03:02:30.261Z,100712.68
2023-05-14T03:04:58.522Z,100714.38
2023-05-14T03:07:26.115Z,100714.17
2023-05-14T03:09:53.746Z,100711.83
2023-05-14T03:12:21.771Z,100710.04
2023-05-14T03:14:49.647Z,100711.04
2023-05-14T03:17:17.286Z,100708.20
2023-05-14T03:19:44.919Z,100708.89
2023-05-14T03:22:12.681Z,100712.20
2023-05-14T03:24:40.829Z,100714.17
2023-05-14T03:27:08.753Z,100718.71
2023-05-14T03:29:36.390Z,100721.59
2023-05-14T03:32:04.747Z,100721.64
2023-05-14T03:34:32.695Z,100714.58
2023-05-14T03:37:00.344Z,100711.03
2023-05-14T03:39:27.975Z,100709.44
2023-05-14T03:41:57.095Z,100709.11
2023-05-14T03:44:25.845Z,100711.21
2023-05-14T03:46:53.612Z,100711.33
2023-05-14T03:49:21.508Z,100710.36
2023-05-14T03:51:49.170Z,100709.94
2023-05-14T03:54:16.839Z,100710.10
2023-05-14T03:56:45.954Z,100707.76
2023-05-14T03:59:14.345Z,100710.14
2023-05-14T04:01:42.078Z,100708.38
2023-05-14T04:04:09.831Z,100709.73
2023-05-14T04:06:37.848Z,100706.63
2023-05-14T04:09:05.484Z,100708.11
2023-05-14T04:11:33.147Z,100708.95
2023-05-14T04:14:01.032Z,100708.89
2023-05-14T04:16:28.788Z,100704.20
2023-05-14T04:18:56.766Z,100704.98
2023-05-14T04:21:24.477Z,100701.58
2023-05-14T04:23:52.144Z,100706.77
2023-05-14T04:26:19.751Z,100704.11
2023-05-14T04:28:47.361Z,100707.20
2023-05-14T04:31:16.197Z,100710.41
2023-05-14T04:33:43.995Z,100709.09
2023-05-14T04:36:11.667Z,100708.50
2023-05-14T04:38:39.822Z,100706.95
2023-05-14T04:41:07.430Z,100704.77
2023-05-14T04:43:35.487Z,100708.76
2023-05-14T04:46:03.286Z,100704.20
2023-05-14T04:48:31.486Z,100698.64
2023-05-14T04:50:59.250Z,100698.69
2023-05-14T04:53:26.922Z,100695.27
2023-05-14T04:55:55.118Z,100695.59
2023-05-14T04:58:23.972Z,100693.49
2023-05-14T05:00:51.724Z,100691.73
2023-05-14T05:03:19.509Z,100693.72
2023-05-14T05:05:47.170Z,100689.14
2023-05-14T05:08:14.871Z,100688.15
2023-05-14T05:10:42.493Z,100687.98
2023-05-14T05:13:10.171Z,100681.91
2023-05-14T05:15:37.885Z,100681.13
2023-05-14T05:18:06.233Z,100683.80
2023-05-14T05:20:34.162Z,100683.91
2023-05-14T05:23:01.814Z,100681.31
2023-05-14T05:25:29.503Z,100679.23
2023-05-14T05:27:57.148Z,100680.87
2023-05-14T05:30:25.073Z,100681.89
2023-05-14T05:32:53.213Z,100677.13
2023-05-14T05:35:20.914Z,100679.92
2023-05-14T05:37:48.627Z,100681.27
2023-05-14T05:40:16.932Z,100682.05
2023-05-14T05:42:44.686Z,100682.08
2023-05-14T05:45:12.345Z,100680.77
2023-05-14T05:47:40.082Z,100676.83
2023-05-14T05:50:09.633Z,100670.30
2023-05-14T05:52:37.701Z,100671.14
2023-05-14T05:55:05.960Z,100672.23
2023-05-14T05:57:33.566Z,100672.66
2023-05-14T06:00:04.731Z,100672.55
2023-05-14T06:02:44.155Z,100669.49
2023-05-14T06:05:12.819Z,100672.69
2023-05-14T06:07:40.556Z,100672.54
2023-05-14T06:10:08.600Z,100668.30
2023-05-14T06:12:36.492Z,100664.08
2023-05-14T06:15:04.645Z,100664.02
2023-05-14T06:17:32.298Z,100667.39
2023-05-14T06:20:00.261Z,100667.20
2023-05-14T06:22:27.926Z,100663.98
2023-05-14T06:24:55.673Z,100662.59
2023-05-14T06:27:23.295Z,100664.93
2023-05-14T06:29:50.961Z,100664.45
2023-05-14T06:32:18.674Z,100660.45
2023-05-14T06:34:46.606Z,100659.08
2023-05-14T06:37:14.235Z,100660.79
2023-05-14T06:39:48.189Z,100658.45
2023-05-14T06:42:16.662Z,100663.80
2023-05-14T06:44:45.051Z,100658.20
2023-05-14T06:47:12.712Z,100655.99
2023-05-14T06:49:40.322Z,100656.34
2023-05-14T06:52:08.232Z,100659.85
2023-05-14T06:54:36.105Z,100661.52
2023-05-14T06:57:03.943Z,100658.89
2023-05-14T06:59:31.624Z,100655.78
2023-05-14T07:01:59.679Z,100657.70
2023-05-14T07:04:27.430Z,100653.12
2023-05-14T07:06:55.057Z,100654.56
2023-05-14T07:09:22.706Z,100653.27
2023-05-14T07:11:50.378Z,100651.81
2023-05-14T07:14:18.002Z,100654.31
2023-05-14T07:16:47.044Z,100653.12
2023-05-14T07:19:14.883Z,100648.50
2023-05-14T07:21:42.504Z,100641.95
2023-05-14T07:24:10.150Z,100645.64
2023-05-14T07:26:39.084Z,100641.11
2023-05-14T07:29:07.126Z,100634.25
2023-05-14T07:31:34.860Z,100632.38
2023-05-14T07:34:02.532Z,100631.05
2023-05-14T07:36:30.894Z,100631.16
2023-05-14T07:38:58.549Z,100626.86
2023-05-14T07:41:26.245Z,100621.94
2023-05-14T07:43:53.880Z,100623.47
2023-05-14T07:46:21.513Z,100617.55
2023-05-14T07:48:49.151Z,100616.58
2023-05-14T07:51:16.828Z,100617.50
2023-05-14T07:53:44.440Z,100614.91
2023-05-14T07:56:12.049Z,100612.83
2023-05-14T07:58:39.732Z,100608.94
2023-05-14T08:01:09.202Z,100603.82
2023-05-14T08:03:37.074Z,100607.25
2023-05-14T08:06:05.374Z,100600.16
2023-05-14T08:08:33.016Z,100602.48
2023-05-14T08:11:02.286Z,100597.52
2023-05-14T08:13:30.238Z,100590.91
2023-05-14T08:15:58.000Z,100590.80
2023-05-14T08:18:25.883Z,100592.08
2023-05-14T08:20:53.506Z,100588.48
2023-05-14T08:23:21.179Z,100583.82
2023-05-14T08:25:48.835Z,100583.52
2023-05-14T08:28:16.538Z,100586.83
2023-05-14T08:30:44.259Z,100582.11
2023-05-14T08:33:12.034Z,100580.96
2023-05-14T08:35:39.654Z,100582.29
2023-05-14T08:38:07.308Z,100579.51
2023-05-14T08:40:35.084Z,100575.50
2023-05-14T08:43:02.784Z,100573.99
2023-05-14T08:45:34.399Z,100569.45
2023-05-14T08:48:08.593Z,100562.00
2023-05-14T08:50:36.468Z,100561.27
2023-05-14T08:53:04.593Z,100561.13
2023-05-14T08:55:34.017Z,100556.08
2023-05-14T08:58:01.758Z,100560.40
2023-05-14T09:00:29.589Z,100557.29
2023-05-14T09:02:58.968Z,100549.77
2023-05-14T09:05:27.035Z,100550.05
2023-05-14T09:07:54.704Z,100553.42
2023-05-14T09:10:22.828Z,100545.44
2023-05-14T09:12:51.655Z,100538.66
2023-05-14T09:15:19.365Z,100537.23
2023-05-14T09:17:48.609Z,100538.81
2023-05-14T09:20:16.752Z,100532.46
2023-05-14T09:22:44.384Z,100532.98
2023-05-14T09:25:12.850Z,100531.42
2023-05-14T09:27:40.468Z,100530.86
2023-05-14T09:30:10.988Z,100525.58
2023-05-14T09:32:47.220Z,100527.08
2023-05-14T09:35:24.553Z,100524.34
2023-05-14T09:37:54.189Z,100525.20
2023-05-14T09:40:24.423Z,100520.36
2023-05-14T09:42:52.985Z,100519.04
2023-05-14T09:45:20.796Z,100510.13
2023-05-14T09:47:48.497Z,100506.08
2023-05-14T09:50:16.189Z,100502.36
2023-05-14T09:52:43.849Z,100500.86
2023-05-14T09:55:11.571Z,100500.69
2023-05-14T09:57:39.360Z,100500.12
2023-05-14T10:00:08.776Z,100496.48
2023-05-14T10:02:38.304Z,100491.62
2023-05-14T10:05:07.692Z,100490.90
2023-05-14T10:07:39.979Z,100493.10
2023-05-14T10:10:11.502Z,100483.57
2023-05-14T10:12:40.861Z,100481.16
2023-05-14T10:15:17.696Z,100475.95
2023-05-14T10:17:57.110Z,100479.36
2023-05-14T10:20:27.079Z,100478.98
2023-05-14T10:22:56.469Z,100475.84
2023-05-14T10:25:24.681Z,100474.20
2023-05-14T10:27:53.219Z,100472.36
2023-05-14T10:30:25.309Z,100469.81
2023-05-14T10:33:11.584Z,100462.20
2023-05-14T10:36:00.749Z,100459.44
2023-05-14T10:38:30.733Z,100455.76
2023-05-14T10:41:04.182Z,100450.03
2023-05-14T10:43:37.434Z,100447.92
2023-05-14T10:46:06.229Z,100448.63
2023-05-14T10:48:34.658Z,100447.95
2023-05-14T10:51:02.923Z,100442.71
2023-05-14T10:53:32.519Z,100442.11
2023-05-14T10:56:11.372Z,100438.86
2023-05-14T10:58:41.751Z,100434.73
2023-05-14T11:01:11.949Z,100429.94
2023-05-14T11:03:47.078Z,100426.92
2023-05-14T11:06:16.085Z,100424.81
2023-05-14T11:08:44.754Z,100415.43
2023-05-14T11:11:12.562Z,100410.41
2023-05-14T11:13:41.558Z,100409.33
2023-05-14T11:16:21.840Z,100406.32
2023-05-14T11:19:03.270Z,100406.71
2023-05-14T11:21:32.495Z,100404.02
2023-05-14T11:24:01.321Z,100396.40
2023-05-14T11:26:29.100Z,100390.36
2023-05-14T11:28:57.022Z,100392.17
2023-05-14T11:31:25.454Z,100385.19
2023-05-14T11:33:53.673Z,100378.61
2023-05-14T11:36:22.034Z,100378.98
2023-05-14T11:38:51.310Z,100375.84
2023-05-14T11:41:21.367Z,100378.30
2023-05-14T11:43:49.213Z,100370.77
2023-05-14T11:46:18.714Z,100373.14
2023-05-14T11:48:46.797Z,100366.99
2023-05-14T11:51:14.481Z,100364.92
2023-05-14T11:53:42.184Z,100356.36
2023-05-14T11:56:10.161Z,100356.66
2023-05-14T11:58:37.958Z,100359.77
2023-05-14T12:01:05.651Z,100355.27
2023-05-14T12:03:35.065Z,100355.61
2023-05-14T12:06:08.004Z,100359.34
2023-05-14T12:08:37.579Z,100355.16
2023-05-14T12:11:05.649Z,100349.86
2023-05-14T12:13:33.322Z,100344.25
2023-05-14T12:16:02.743Z,100340.44
2023-05-14T12:18:32.410Z,100334.34
2023-05-14T12:21:07.718Z,100330.55
2023-05-14T12:23:35.481Z,100327.81
2023-05-14T12:26:07.328Z,100319.55
2023-05-14T12:28:38.500Z,100317.90
2023-05-14T12:31:06.959Z,100317.86
2023-05-14T12:33:34.820Z,100311.08
2023-05-14T12:36:13.557Z,100301.22
2023-05-14T12:38:50.201Z,100304.14
2023-05-14T12:41:18.145Z,100301.73
2023-05-14T12:43:49.307Z,100295.77
2023-05-14T12:46:16.986Z,100288.86
2023-05-14T12:48:44.683Z,100280.42
2023-05-14T12:51:12.483Z,100276.70
2023-05-14T12:53:40.578Z,100277.21
2023-05-14T12:56:08.594Z,100273.72
2023-05-14T12:58:36.601Z,100270.31
2023-05-14T13:01:05.225Z,100267.54
2023-05-14T13:03:32.987Z,100260.80
2023-05-14T13:06:01.336Z,100252.20
2023-05-14T13:08:29.015Z,100239.69
2023-05-14T13:10:56.869Z,100241.02
2023-05-14T13:13:24.579Z,100235.79
2023-05-14T13:15:53.145Z,100227.80
2023-05-14T13:18:20.801Z,100216.17
2023-05-14T13:20:48.512Z,100211.80
2023-05-14T13:23:16.155Z,100202.88
2023-05-14T13:25:43.881Z,100197.05
2023-05-14T13:28:11.502Z,100200.66
2023-05-14T13:30:39.158Z,100196.88
2023-05-14T13:33:06.883Z,100188.15
2023-05-14T13:35:34.661Z,100188.27
2023-05-14T13:38:02.911Z,100181.91
2023-05-14T13:40:30.528Z,100175.99
2023-05-14T13:42:58.167Z,100172.71
2023-05-14T13:45:25.966Z,100168.50
2023-05-14T13:47:53.886Z,100167.80
2023-05-14T13:50:22.076Z,100161.28
2023-05-14T13:52:49.714Z,100153.41
2023-05-14T13:55:17.457Z,100153.76
2023-05-14T13:57:45.355Z,100152.47
2023-05-14T14:00:14.888Z,100155.44
2023-05-14T14:02:42.530Z,100149.95
2023-05-14T14:05:10.354Z,100143.80
2023-05-14T14:07:39.560Z,100139.61
2023-05-14T14:10:10.602Z,100138.83
2023-05-14T14:12:38.309Z,100138.02
2023-05-14T14:15:06.796Z,100119.36
2023-05-14T14:17:34.730Z,100133.57
2023-05-14T14:20:05.800Z,100128.54
2023-05-14T14:22:33.719Z,100123.36
2023-05-14T14:25:02.029Z,100115.05
2023-05-14T14:27:34.806Z,100108.41
2023-05-14T14:30:02.874Z,100110.08
2023-05-14T14:32:30.780Z,100111.56
2023-05-14T14:34:58.467Z,100103.13
2023-05-14T14:37:26.144Z,100105.00
2023-05-14T14:39:53.753Z,100097.27
2023-05-14T14:42:21.412Z,100097.15
2023-05-14T14:44:49.038Z,100092.97
2023-05-14T14:47:16.765Z,100088.73
2023-05-14T14:49:44.357Z,100089.90
2023-05-14T14:52:11.987Z,100084.03
2023-05-14T14:54:39.586Z,100080.48
2023-05-14T14:57:07.203Z,100080.70
2023-05-14T14:59:35.596Z,100081.36
2023-05-14T15:02:03.685Z,100075.80
2023-05-14T15:04:34.050Z,100073.08
2023-05-14T15:07:02.262Z,100069.45
2023-05-14T15:09:30.888Z,100065.23
2023-05-14T15:11:58.661Z,100068.59
2023-05-14T15:14:26.700Z,100068.27
2023-05-14T15:16:54.386Z,100066.58
2023-05-14T15:19:22.022Z,100064.26
2023-05-14T15:21:50.041Z,100067.30
2023-05-14T15:24:17.709Z,100067.14
2023-05-14T15:26:45.804Z,100067.80
2023-05-14T15:29:13.453Z,100062.48
2023-05-14T15:31:41.231Z,100063.32
2023-05-14T15:34:09.075Z,100065.27
2023-05-14T15:36:36.637Z,100065.00
2023-05-14T15:39:04.212Z,100063.58
2023-05-14T15:41:31.836Z,100060.15
2023-05-14T15:43:59.830Z,100059.15
2023-05-14T15:46:27.548Z,100054.17
2023-05-14T15:48:55.359Z,100049.79
2023-05-14T15:51:22.944Z,100048.77
2023-05-14T15:53:53.768Z,100045.94
2023-05-14T15:56:22.887Z,100043.67
2023-05-14T15:58:50.826Z,100038.19
2023-05-14T16:01:19.540Z,100039.59
2023-05-14T16:03:47.351Z,100037.42
2023-05-14T16:06:15.077Z,100034.02
2023-05-14T16:08:42.690Z,100032.13
2023-05-14T16:11:10.379Z,100028.81
2023-05-14T16:13:39.892Z,100028.28
2023-05-14T16:16:08.082Z,100026.02
2023-05-14T16:18:35.791Z,100025.63
2023-05-14T16:21:03.545Z,100023.01
2023-05-14T16:23:31.268Z,100017.23
2023-05-14T16:25:58.969Z,100017.09
2023-05-14T16:28:27.000Z,100010.91
2023-05-14T16:30:54.656Z,100003.54
2023-05-14T16:33:22.259Z,100005.36
2023-05-14T16:35:51.147Z,100006.98
2023-05-14T16:38:21.502Z,100010.39
2023-05-14T16:40:49.106Z,100008.99
2023-05-14T16:43:17.046Z,100004.81
2023-05-14T16:45:44.728Z,100003.59
2023-05-14T16:48:12.532Z,100004.63
2023-05-14T16:50:40.183Z,100000.85
2023-05-14T16:53:07.824Z,100002.48
2023-05-14T16:55:35.570Z,99999.11
2023-05-14T16:58:03.180Z,99994.61
2023-05-14T17:00:30.794Z,99995.48
2023-05-14T17:02:58.435Z,99998.45
2023-05-14T17:05:26.234Z,99994.60
2023-05-14T17:07:54.059Z,99995.63
2023-05-14T17:10:21.784Z,99995.55
2023-05-14T17:12:49.377Z,100000.61
2023-05-14T17:15:19.970Z,99999.45
2023-05-14T17:17:47.632Z,99998.93
2023-05-14T17:20:16.915Z,99998.52
2023-05-14T17:22:44.914Z,99998.96
2023-05-14T17:25:12.678Z,99998.78
2023-05-14T17:27:40.354Z,99995.06
2023-05-14T17:30:08.407Z,99993.80
2023-05-14T17:32:36.205Z,99994.08
2023-05-14T17:35:05.238Z,99997.93
2023-05-14T17:37:32.994Z,99994.73
2023-05-14T17:40:00.666Z,99996.55
2023-05-14T17:42:28.334Z,99998.00
2023-05-14T17:44:55.992Z,99999.96
2023-05-14T17:47:23.662Z,99998.82
2023-05-14T17:49:51.340Z,99997.61
2023-05-14T17:52:19.201Z,99997.38
2023-05-14T17:54:46.881Z,99993.30
2023-05-14T17:57:14.805Z,99989.65
2023-05-14T17:59:42.428Z,99997.21
2023-05-14T18:02:10.100Z,100002.05
2023-05-14T18:04:37.804Z,100003.95
2023-05-14T18:07:05.733Z,100002.38
2023-05-14T18:09:33.397Z,100007.64
2023-05-14T18:12:01.001Z,100002.23
2023-05-14T18:14:28.614Z,100003.00
2023-05-14T18:16:56.407Z,100003.77
2023-05-14T18:19:24.764Z,100002.54
2023-05-14T18:21:55.182Z,100006.16
2023-05-14T18:24:22.938Z,100010.62
2023-05-14T18:26:50.791Z,100010.91
2023-05-14T18:29:18.392Z,100007.84
2023-05-14T18:31:46.009Z,100008.98
2023-05-14T18:34:13.617Z,100012.84
2023-05-14T18:36:41.451Z,100014.52
2023-05-14T18:39:09.599Z,100017.86
2023-05-14T18:41:37.279Z,100020.11
2023-05-14T18:44:04.898Z,100022.42
2023-05-14T18:46:32.695Z,100027.49
2023-05-14T18:49:00.410Z,100025.85
2023-05-14T18:51:28.088Z,100021.24
2023-05-14T18:53:55.749Z,100026.23
2023-05-14T18:56:24.471Z,100022.14
2023-05-14T18:58:53.395Z,100021.09
2023-05-14T19:01:23.121Z,100022.80
2023-05-14T19:03:52.915Z,100027.00
2023-05-14T19:06:20.754Z,100023.88
2023-05-14T19:08:48.437Z,100022.05
2023-05-14T19:11:17.938Z,100022.08
2023-05-14T19:13:49.431Z,100022.56
2023-05-14T19:16:17.110Z,100021.16
2023-05-14T19:18:44.941Z,100019.27
2023-05-14T19:21:14.729Z,100019.73
2023-05-14T19:23:42.427Z,100014.27
2023-05-14T19:26:10.462Z,100018.02
2023-05-14T19:28:38.755Z,100017.88
2023-05-14T19:31:06.472Z,100018.72
2023-05-14T19:33:34.246Z,100017.70
2023-05-14T19:36:01.915Z,100018.06
2023-05-14T19:38:30.327Z,100020.81
2023-05-14T19:40:58.014Z,100017.09
2023-05-14T19:43:26.088Z,100020.33
2023-05-14T19:45:53.919Z,100020.04
2023-05-14T19:48:21.587Z,100022.55
2023-05-14T19:50:49.267Z,100020.08
2023-05-14T19:53:16.853Z,100016.64
2023-05-14T19:55:44.611Z,100015.94
2023-05-14T19:58:12.253Z,100016.60
2023-05-14T20:00:39.917Z,100011.98
2023-05-14T20:03:07.641Z,100009.14
2023-05-14T20:05:36.156Z,100006.77
2023-05-14T20:08:06.532Z,100006.68
2023-05-14T20:10:34.191Z,99999.29
2023-05-14T20:13:01.810Z,99996.38
2023-05-14T20:15:29.587Z,99995.80
2023-05-14T20:17:57.542Z,99995.48
2023-05-14T20:20:25.599Z,99994.46
2023-05-14T20:22:53.510Z,99991.84
2023-05-14T20:25:21.760Z,99994.55
2023-05-14T20:27:49.692Z,99993.21
2023-05-14T20:30:17.353Z,99996.09
2023-05-14T20:32:45.245Z,99993.81
2023-05-14T20:35:13.206Z,99991.06
2023-05-14T20:37:41.203Z,99988.48
2023-05-14T20:40:12.589Z,99987.61
2023-05-14T20:42:40.576Z,99989.37
2023-05-14T20:45:08.853Z,99990.39
2023-05-14T20:47:36.572Z,99988.87
2023-05-14T20:50:04.698Z,99988.02
2023-05-14T20:52:32.406Z,99989.95
2023-05-14T20:55:01.844Z,99989.27
2023-05-14T20:57:30.154Z,99990.70
2023-05-14T20:59:57.777Z,99988.96
2023-05-14T21:02:25.521Z,99987.35
2023-05-14T21:04:53.403Z,99986.95
2023-05-14T21:07:21.106Z,99982.25
2023-05-14T21:09:52.178Z,99975.21
2023-05-14T21:12:19.819Z,99972.29
2023-05-14T21:14:47.561Z,99970.55
2023-05-14T21:17:15.274Z,99970.00
2023-05-14T21:19:42.945Z,99969.29
2023-05-14T21:22:10.520Z,99968.14
2023-05-14T21:24:38.142Z,99967.26
2023-05-14T21:27:05.898Z,99963.40
2023-05-14T21:29:33.541Z,99964.48
2023-05-14T21:32:01.223Z,99961.65
2023-05-14T21:34:31.264Z,99958.94
2023-05-14T21:36:59.752Z,99959.64
2023-05-14T21:39:27.346Z,99962.34
2023-05-14T21:41:54.931Z,99961.93
2023-05-14T21:44:22.696Z,99961.05
2023-05-14T21:46:50.575Z,99959.29
2023-05-14T21:49:18.213Z,99959.45
2023-05-14T21:51:45.841Z,99960.69
2023-05-14T21:54:13.999Z,99959.43
2023-05-14T21:56:41.651Z,99957.91
2023-05-14T21:59:09.345Z,99954.27
2023-05-14T22:01:46.058Z,99952.37
2023-05-14T22:04:24.810Z,99947.35
2023-05-14T22:06:52.445Z,99948.95
2023-05-14T22:09:20.767Z,99948.46
2023-05-14T22:11:48.356Z,99941.22
2023-05-14T22:14:16.003Z,99940.56
2023-05-14T22:16:43.714Z,99938.34
2023-05-14T22:19:11.870Z,99936.51
2023-05-14T22:21:39.615Z,99932.47
2023-05-14T22:24:07.387Z,99932.34
2023-05-14T22:26:35.388Z,99934.77
2023-05-14T22:29:03.021Z,99930.97
2023-05-14T22:31:30.790Z,99931.35
2023-05-14T22:33:58.382Z,99931.11
2023-05-14T22:36:25.993Z,99931.75
2023-05-14T22:38:53.642Z,99926.48
2023-05-14T22:41:22.064Z,99925.55
2023-05-14T22:43:50.827Z,99919.55
2023-05-14T22:46:18.578Z,99918.51
2023-05-14T22:48:48.911Z,99916.17
2023-05-14T22:51:16.612Z,99909.58
2023-05-14T22:53:44.254Z,99905.95
2023-05-14T22:56:11.878Z,99902.01
2023-05-14T22:58:39.482Z,99900.22
2023-05-14T23:01:07.148Z,99901.34
2023-05-14T23:03:34.798Z,99894.80
2023-05-14T23:06:02.471Z,99891.55
2023-05-14T23:08:30.189Z,99889.92
2023-05-14T23:10:57.836Z,99884.14
2023-05-14T23:13:25.570Z,99879.98
2023-05-14T23:15:53.402Z,99878.97
2023-05-14T23:18:21.308Z,99872.81
2023-05-14T23:20:49.898Z,99871.69
2023-05-14T23:23:17.599Z,99866.89
2023-05-14T23:25:45.721Z,99862.68
2023-05-14T23:28:13.432Z,99856.54
2023-05-14T23:30:41.337Z,99852.07
2023-05-14T23:33:08.980Z,99847.96
2023-05-14T23:35:40.560Z,99845.45
2023-05-14T23:38:09.385Z,99842.91
2023-05-14T23:40:37.165Z,99836.77
2023-05-14T23:43:04.771Z,99833.42
2023-05-14T23:45:32.850Z,99832.95
2023-05-14T23:48:01.584Z,99830.48
2023-05-14T23:50:29.456Z,99831.05
2023-05-14T23:52:57.208Z,99826.00
2023-05-14T23:55:25.087Z,99821.42
2023-05-14T23:57:53.074Z,99821.11
